Time;durP1;ratioP1;P1;durP2;ratioP2;P2;SDS_P1;SDS_P2;PMS_P1;PMS_P2;Temp;Humidity;BMP_temperature;BMP_pressure;BME280_temperature;BME280_humidity;BME280_pressure;Samples;Min_cycle;Max_cycle;Signal;HPM_P1;HPM_P2
2021/06/30 00:00:04;;;;;;;;;;;;;;;24.21;65.00;100311.47;2052676;28;4063;-77
2021/06/30 00:01:36;;;;;;;;;;;;;;;24.20;64.85;100306.94;2052913;28;3886;-81
2021/06/30 00:03:02;;;;;;;;;;;;;;;24.21;64.91;100317.19;2054681;28;4354;-83
2021/06/30 00:04:33;;;;;;;;;;;;;;;24.21;64.93;100302.91;2051800;28;3958;-74
2021/06/30 00:06:05;;;;;;;;;;;;;;;24.20;65.11;100312.66;2053569;28;4062;-71
2021/06/30 00:07:36;;;;;;;;;;;;;;;24.21;64.95;100305.75;2054045;28;3947;-85
2021/06/30 00:09:08;;;;;;;;;;;;;;;24.20;64.98;100316.38;2050919;28;4056;-84
2021/06/30 00:10:42;;;;;;;;;;;;;;;24.18;65.14;100310.22;2053945;28;4033;-80
2021/06/30 00:12:14;;;;;;;;;;;;;;;24.18;65.08;100307.34;2054054;28;3773;-80
2021/06/30 00:13:46;;;;;;;;;;;;;;;24.18;65.10;100313.06;2054499;28;4199;-80
2021/06/30 00:15:17;;;;;;;;;;;;;;;24.18;65.04;100318.78;2053474;28;3979;-78
2021/06/30 00:16:49;;;;;;;;;;;;;;;24.18;65.15;100307.34;2052680;28;4261;-78
2021/06/30 00:18:22;;;;;;;;;;;;;;;24.16;65.12;100309.78;2054375;28;4150;-83
2021/06/30 00:19:54;;;;;;;;;;;;;;;24.16;65.22;100304.06;2053333;28;3998;-79
2021/06/30 00:21:25;;;;;;;;;;;;;;;24.16;65.09;100300.38;2053739;28;4136;-78
2021/06/30 00:22:56;;;;;;;;;;;;;;;24.17;65.19;100293.44;2054200;28;4229;-79
2021/06/30 00:24:27;;;;;;;;;;;;;;;24.17;65.27;100296.28;2054518;28;4175;-79
2021/06/30 00:25:58;;;;;;;;;;;;;;;24.16;65.40;100297.53;2054565;28;4198;-78
2021/06/30 00:27:29;;;;;;;;;;;;;;;24.15;65.40;100293.84;2054590;28;3965;-81
2021/06/30 00:29:00;;;;;;;;;;;;;;;24.17;65.40;100302.00;2053723;28;4047;-79
2021/06/30 00:30:31;;;;;;;;;;;;;;;24.15;65.56;100301.56;2054064;28;3939;-82
2021/06/30 00:32:02;;;;;;;;;;;;;;;24.14;65.48;100300.75;2053989;28;4065;-79
2021/06/30 00:33:34;;;;;;;;;;;;;;;24.14;65.59;100297.91;2054209;28;4062;-78
2021/06/30 00:35:05;;;;;;;;;;;;;;;24.14;65.56;100300.75;2054624;28;4071;-87
2021/06/30 00:36:36;;;;;;;;;;;;;;;24.15;65.61;100298.72;2060640;28;3941;-78
2021/06/30 00:38:07;;;;;;;;;;;;;;;24.15;65.54;100295.84;2053921;28;4195;-78
2021/06/30 00:39:38;;;;;;;;;;;;;;;24.16;65.61;100300.38;2054181;28;3771;-78
2021/06/30 00:41:09;;;;;;;;;;;;;;;24.16;65.62;100297.53;2053055;28;4012;-79
2021/06/30 00:42:40;;;;;;;;;;;;;;;24.16;65.68;100294.66;2052974;28;3986;-76
2021/06/30 00:44:11;;;;;;;;;;;;;;;24.15;65.63;100287.28;2054099;28;4052;-77
2021/06/30 00:45:43;;;;;;;;;;;;;;;24.15;65.72;100285.28;2053860;28;4092;-77
2021/06/30 00:47:14;;;;;;;;;;;;;;;24.15;65.83;100275.84;2053459;28;3851;-78
2021/06/30 00:48:46;;;;;;;;;;;;;;;24.15;65.86;100279.56;2052497;28;4043;-81
2021/06/30 00:50:17;;;;;;;;;;;;;;;24.14;65.97;100280.75;2053387;28;3970;-85
2021/06/30 00:51:48;;;;;;;;;;;;;;;24.14;65.87;100285.66;2053798;28;4040;-83
2021/06/30 00:53:19;;;;;;;;;;;;;;;24.14;65.85;100285.66;2053144;28;3969;-83
2021/06/30 00:54:50;;;;;;;;;;;;;;;24.14;65.94;100286.47;2053295;28;4265;-81
2021/06/30 00:56:24;;;;;;;;;;;;;;;24.13;65.90;100284.81;2053599;28;3971;-82
2021/06/30 00:57:55;;;;;;;;;;;;;;;24.13;65.91;100281.16;2060877;28;4036;-84
2021/06/30 00:59:26;;;;;;;;;;;;;;;24.13;65.86;100279.09;2053654;28;4014;-87
2021/06/30 01:00:58;;;;;;;;;;;;;;;24.13;65.81;100281.16;2053221;28;4081;-86
2021/06/30 01:02:24;;;;;;;;;;;;;;;24.13;65.91;100284.00;2060942;28;3978;-84
2021/06/30 01:03:51;;;;;;;;;;;;;;;24.13;66.04;100284.00;2053416;28;4180;-83
2021/06/30 01:05:23;;;;;;;;;;;;;;;24.12;66.08;100293.78;2054259;28;3972;-85
2021/06/30 01:06:54;;;;;;;;;;;;;;;24.12;65.91;100288.91;2052360;28;4204;-79
2021/06/30 01:08:26;;;;;;;;;;;;;;;24.12;65.97;100286.06;2052866;28;4030;-77
2021/06/30 01:09:58;;;;;;;;;;;;;;;24.12;66.07;100290.91;2053060;28;4210;-78
2021/06/30 01:11:29;;;;;;;;;;;;;;;24.11;66.09;100290.09;2053432;28;3998;-77
2021/06/30 01:13:00;;;;;;;;;;;;;;;24.12;66.04;100290.91;2052929;28;4079;-82
2021/06/30 01:14:31;;;;;;;;;;;;;;;24.11;65.99;100284.38;2052990;28;4010;-83
2021/06/30 01:16:03;;;;;;;;;;;;;;;24.12;66.03;100285.19;2052995;28;4218;-84
2021/06/30 01:17:34;;;;;;;;;;;;;;;24.11;66.09;100290.09;2051725;28;5078;-89
2021/06/30 01:19:06;;;;;;;;;;;;;;;24.11;66.15;100287.25;2052829;28;4234;-87
2021/06/30 01:20:38;;;;;;;;;;;;;;;24.11;66.12;100289.28;2052792;28;3874;-80
2021/06/30 01:22:10;;;;;;;;;;;;;;;24.11;66.16;100286.44;2052251;28;4069;-79
2021/06/30 01:23:41;;;;;;;;;;;;;;;24.11;66.30;100290.09;2053057;28;4068;-75
2021/06/30 01:25:13;;;;;;;;;;;;;;;24.11;66.23;100292.13;2051504;28;3804;-79
2021/06/30 01:26:45;;;;;;;;;;;;;;;24.11;66.29;100286.44;2052547;28;4024;-81
2021/06/30 01:28:16;;;;;;;;;;;;;;;24.10;66.29;100293.38;2051398;28;3789;-80
2021/06/30 01:29:48;;;;;;;;;;;;;;;24.09;66.30;100286.81;2050419;28;4209;-79
2021/06/30 01:31:19;;;;;;;;;;;;;;;24.09;66.37;100285.97;2052041;28;4973;-79
2021/06/30 01:32:50;;;;;;;;;;;;;;;24.09;66.43;100288.84;2052233;28;4025;-79
2021/06/30 01:34:21;;;;;;;;;;;;;;;24.09;66.39;100288.84;2053418;28;3794;-78
2021/06/30 01:35:53;;;;;;;;;;;;;;;24.09;66.42;100283.13;2052933;28;4902;-79
2021/06/30 01:37:24;;;;;;;;;;;;;;;24.09;66.47;100280.25;2053516;28;3943;-79
2021/06/30 01:38:50;;;;;;;;;;;;;;;24.08;66.47;100285.16;2053412;28;4249;-78
2021/06/30 01:40:22;;;;;;;;;;;;;;;24.08;66.43;100285.16;2053972;28;3835;-78
2021/06/30 01:41:54;;;;;;;;;;;;;;;24.08;66.44;100281.50;2052377;28;4406;-74
2021/06/30 01:43:25;;;;;;;;;;;;;;;24.08;66.48;100284.34;2053409;28;3870;-75
2021/06/30 01:44:57;;;;;;;;;;;;;;;24.08;66.53;100281.50;2052510;28;4195;-75
2021/06/30 01:46:29;;;;;;;;;;;;;;;24.07;66.60;100282.69;2050952;28;3959;-75
2021/06/30 01:48:00;;;;;;;;;;;;;;;24.07;66.56;100282.69;2052503;28;4051;-74
2021/06/30 01:49:31;;;;;;;;;;;;;;;24.07;66.58;100286.38;2061460;28;3927;-74
2021/06/30 01:51:02;;;;;;;;;;;;;;;24.07;66.61;100286.38;2052158;28;4074;-74
2021/06/30 01:52:33;;;;;;;;;;;;;;;24.08;66.77;100284.34;2053401;28;3963;-74
2021/06/30 01:54:04;;;;;;;;;;;;;;;24.07;66.66;100272.09;2052899;28;4203;-74
2021/06/30 01:55:35;;;;;;;;;;;;;;;24.08;66.68;100285.16;2052866;28;3792;-75
2021/06/30 01:57:07;;;;;;;;;;;;;;;24.08;66.78;100287.19;2052968;28;4229;-75
2021/06/30 01:58:38;;;;;;;;;;;;;;;24.08;66.79;100296.59;2053124;28;3797;-76
2021/06/30 02:00:10;;;;;;;;;;;;;;;24.08;66.67;100292.91;2052877;28;5002;-78
2021/06/30 02:01:41;;;;;;;;;;;;;;;24.08;66.69;100310.06;2052355;28;4203;-76
2021/06/30 02:03:12;;;;;;;;;;;;;;;24.04;66.78;100307.16;2052834;28;3807;-79
2021/06/30 02:04:44;;;;;;;;;;;;;;;24.07;66.84;100323.53;2052592;28;4277;-71
2021/06/30 02:06:15;;;;;;;;;;;;;;;24.07;66.88;100311.25;2052473;28;3800;-73
2021/06/30 02:07:47;;;;;;;;;;;;;;;24.07;66.88;100312.09;2052037;28;4050;-73
2021/06/30 02:09:18;;;;;;;;;;;;;;;24.07;66.85;100308.41;2054171;28;3865;-73
2021/06/30 02:10:49;;;;;;;;;;;;;;;24.07;66.69;100299.81;2051553;28;4003;-73
2021/06/30 02:12:20;;;;;;;;;;;;;;;24.07;66.93;100300.69;2052031;28;3800;-72
2021/06/30 02:13:52;;;;;;;;;;;;;;;24.07;66.96;100303.53;2052123;28;4149;-73
2021/06/30 02:15:23;;;;;;;;;;;;;;;24.08;66.82;100295.78;2052147;28;3789;-73
2021/06/30 02:16:55;;;;;;;;;;;;;;;24.06;66.83;100289.63;2052646;28;4037;-73
2021/06/30 02:18:26;;;;;;;;;;;;;;;24.06;66.86;100278.19;2052418;28;3960;-72
2021/06/30 02:19:57;;;;;;;;;;;;;;;24.06;66.79;100269.63;2052541;28;4061;-72
2021/06/30 02:21:28;;;;;;;;;;;;;;;24.05;66.83;100265.94;2052919;28;4000;-76
2021/06/30 02:22:59;;;;;;;;;;;;;;;24.05;66.98;100256.53;2060094;28;4258;-77
2021/06/30 02:24:30;;;;;;;;;;;;;;;24.04;66.89;100250.00;2052785;28;3918;-76
2021/06/30 02:26:02;;;;;;;;;;;;;;;24.04;66.89;100234.88;2053074;28;4029;-76
2021/06/30 02:27:33;;;;;;;;;;;;;;;24.04;66.95;100234.88;2052587;28;3806;-76
2021/06/30 02:29:04;;;;;;;;;;;;;;;24.04;66.77;100238.59;2052345;28;4235;-77
2021/06/30 02:30:35;;;;;;;;;;;;;;;24.03;66.81;100231.22;2053150;28;3803;-76
2021/06/30 02:32:06;;;;;;;;;;;;;;;24.03;66.82;100231.22;2052984;28;4047;-77
2021/06/30 02:33:37;;;;;;;;;;;;;;;24.02;66.76;100229.56;2052170;28;3921;-76
2021/06/30 02:35:09;;;;;;;;;;;;;;;24.02;66.77;100234.47;2052042;28;4051;-77
2021/06/30 02:36:41;;;;;;;;;;;;;;;24.01;66.70;100245.06;2051437;28;4031;-77
2021/06/30 02:38:13;;;;;;;;;;;;;;;24.01;66.70;100239.34;2052865;28;4203;-75
2021/06/30 02:39:44;;;;;;;;;;;;;;;24.02;66.64;100235.28;2052946;28;4223;-74
2021/06/30 02:41:15;;;;;;;;;;;;;;;24.00;66.62;100238.53;2052068;28;3819;-74
2021/06/30 02:42:46;;;;;;;;;;;;;;;24.02;66.61;100240.19;2052827;28;4020;-73
2021/06/30 02:44:17;;;;;;;;;;;;;;;24.02;66.59;100248.75;2051866;28;3830;-74
2021/06/30 02:45:48;;;;;;;;;;;;;;;24.01;66.64;100250.75;2052180;28;4216;-73
2021/06/30 02:47:20;;;;;;;;;;;;;;;23.99;66.54;100250.34;2052505;28;3815;-74
2021/06/30 02:48:51;;;;;;;;;;;;;;;24.01;66.55;100253.63;2052746;28;4016;-77
2021/06/30 02:50:22;;;;;;;;;;;;;;;23.99;66.59;100248.31;2053080;28;3868;-74
2021/06/30 02:51:53;;;;;;;;;;;;;;;23.99;66.57;100259.75;2052175;28;4204;-74
2021/06/30 02:53:24;;;;;;;;;;;;;;;23.99;66.52;100253.22;2052729;28;3830;-74
2021/06/30 02:54:55;;;;;;;;;;;;;;;23.98;66.51;100258.09;2052268;28;4062;-74
2021/06/30 02:56:26;;;;;;;;;;;;;;;23.98;66.43;100258.09;2052316;28;4001;-74
2021/06/30 02:57:57;;;;;;;;;;;;;;;23.97;66.50;100253.59;2052554;28;4034;-74
2021/06/30 02:59:28;;;;;;;;;;;;;;;23.97;66.51;100253.59;2051977;28;3841;-74
2021/06/30 03:00:59;;;;;;;;;;;;;;;23.97;66.52;100255.63;2051585;28;5064;-74
2021/06/30 03:02:30;;;;;;;;;;;;;;;23.97;66.41;100256.44;2052296;28;3969;-73
2021/06/30 03:04:01;;;;;;;;;;;;;;;23.96;66.44;100248.28;2051996;28;5023;-73
2021/06/30 03:05:32;;;;;;;;;;;;;;;23.96;66.53;100245.41;2052393;28;3848;-72
2021/06/30 03:07:03;;;;;;;;;;;;;;;23.94;66.54;100250.69;2051567;28;4247;-73
2021/06/30 03:08:34;;;;;;;;;;;;;;;23.94;66.51;100248.66;2052597;28;3845;-72
2021/06/30 03:10:06;;;;;;;;;;;;;;;23.94;66.44;100251.50;2051663;28;4072;-72
2021/06/30 03:11:39;;;;;;;;;;;;;;;23.94;66.51;100254.38;2053113;28;3857;-73
2021/06/30 03:13:10;;;;;;;;;;;;;;;23.94;66.51;100247.84;2052137;28;4213;-73
2021/06/30 03:14:41;;;;;;;;;;;;;;;23.94;66.46;100251.50;2052283;28;4342;-72
2021/06/30 03:16:13;;;;;;;;;;;;;;;23.93;66.39;100243.31;2052444;28;4168;-72
2021/06/30 03:17:45;;;;;;;;;;;;;;;23.93;66.30;100247.00;2051507;28;4447;-72
2021/06/30 03:19:17;;;;;;;;;;;;;;;23.93;66.34;100249.03;2052145;28;3961;-73
2021/06/30 03:20:48;;;;;;;;;;;;;;;23.93;66.28;100249.03;2051307;28;4052;-73
2021/06/30 03:22:20;;;;;;;;;;;;;;;23.93;66.25;100254.75;2053043;28;3825;-72
2021/06/30 03:23:51;;;;;;;;;;;;;;;23.92;66.24;100259.63;2051863;28;4039;-73
2021/06/30 03:25:24;;;;;;;;;;;;;;;23.93;66.19;100260.44;2051776;28;3879;-72
2021/06/30 03:26:56;;;;;;;;;;;;;;;23.90;66.28;100262.06;2053283;28;4050;-72
2021/06/30 03:28:28;;;;;;;;;;;;;;;23.92;66.31;100264.53;2053186;28;3791;-72
2021/06/30 03:29:59;;;;;;;;;;;;;;;23.90;66.37;100258.38;2053236;28;4184;-72
2021/06/30 03:31:30;;;;;;;;;;;;;;;23.89;66.33;100256.75;2052890;28;3800;-73
2021/06/30 03:33:02;;;;;;;;;;;;;;;23.89;66.32;100268.16;2052945;28;4236;-74
2021/06/30 03:34:34;;;;;;;;;;;;;;;23.88;66.30;100281.63;2054333;28;3793;-74
2021/06/30 03:36:06;;;;;;;;;;;;;;;23.88;66.38;100281.63;2053907;28;4060;-74
2021/06/30 03:37:37;;;;;;;;;;;;;;;23.90;66.30;100289.78;2053560;28;3761;-74
2021/06/30 03:39:04;;;;;;;;;;;;;;;23.89;66.36;100286.13;2060758;28;4030;-74
2021/06/30 03:40:35;;;;;;;;;;;;;;;23.89;66.36;100282.44;2054481;28;3794;-74
2021/06/30 03:42:06;;;;;;;;;;;;;;;23.88;66.46;100281.63;2053328;28;4073;-74
2021/06/30 03:43:37;;;;;;;;;;;;;;;23.88;66.45;100283.66;2054858;28;3788;-77
2021/06/30 03:45:09;;;;;;;;;;;;;;;23.87;66.44;100279.97;2053945;28;4065;-76
2021/06/30 03:46:40;;;;;;;;;;;;;;;23.88;66.49;100289.38;2053349;28;4015;-76
2021/06/30 03:48:11;;;;;;;;;;;;;;;23.87;66.46;100287.72;2054633;28;3796;-76
2021/06/30 03:49:42;;;;;;;;;;;;;;;23.86;66.58;100289.75;2054001;28;4062;-76
2021/06/30 03:51:13;;;;;;;;;;;;;;;23.85;66.64;100288.13;2055557;28;3977;-76
2021/06/30 03:52:44;;;;;;;;;;;;;;;23.85;66.63;100290.97;2053499;28;4087;-76
2021/06/30 03:54:15;;;;;;;;;;;;;;;23.85;66.61;100282.41;2054651;28;4151;-74
2021/06/30 03:55:47;;;;;;;;;;;;;;;23.85;66.56;100288.13;2054298;28;4068;-74
2021/06/30 03:57:18;;;;;;;;;;;;;;;23.85;66.74;100282.41;2054056;28;3852;-75
2021/06/30 03:58:49;;;;;;;;;;;;;;;23.84;66.52;100286.47;2054264;28;4021;-74
2021/06/30 04:00:20;;;;;;;;;;;;;;;23.85;66.67;100288.13;2053155;28;3794;-74
2021/06/30 04:01:52;;;;;;;;;;;;;;;23.85;66.53;100285.25;2052711;28;4024;-75
2021/06/30 04:03:23;;;;;;;;;;;;;;;23.84;66.69;100280.75;2054115;28;4172;-74
2021/06/30 04:04:55;;;;;;;;;;;;;;;23.84;66.56;100286.47;2053197;28;4071;-73
2021/06/30 04:06:26;;;;;;;;;;;;;;;23.84;66.48;100274.22;2053887;28;3820;-74
2021/06/30 04:07:57;;;;;;;;;;;;;;;23.85;66.47;100278.72;2053596;28;4091;-73
2021/06/30 04:09:23;;;;;;;;;;;;;;;23.83;66.52;100273.41;2053957;28;3992;-73
2021/06/30 04:10:50;;;;;;;;;;;;;;;23.84;66.55;100275.03;2054429;28;4016;-73
2021/06/30 04:12:21;;;;;;;;;;;;;;;23.84;66.50;100286.47;2054504;28;3973;-72
2021/06/30 04:13:53;;;;;;;;;;;;;;;23.84;66.50;100286.47;2052856;28;4031;-72
2021/06/30 04:15:24;;;;;;;;;;;;;;;23.83;66.61;100284.81;2052710;28;4141;-72
2021/06/30 04:16:56;;;;;;;;;;;;;;;23.83;66.52;100284.00;2053762;28;4745;-71
2021/06/30 04:18:27;;;;;;;;;;;;;;;23.82;66.50;100274.63;2052780;28;3907;-71
2021/06/30 04:19:58;;;;;;;;;;;;;;;23.82;66.56;100280.31;2054028;28;4053;-70
2021/06/30 04:21:29;;;;;;;;;;;;;;;23.82;66.57;100279.47;2052874;28;3963;-70
2021/06/30 04:23:01;;;;;;;;;;;;;;;23.81;66.71;100289.28;2053011;28;4060;-69
2021/06/30 04:24:32;;;;;;;;;;;;;;;23.81;66.66;100286.41;2053432;28;3790;-71
2021/06/30 04:26:04;;;;;;;;;;;;;;;23.80;66.75;100291.31;2052617;28;4254;-71
2021/06/30 04:27:35;;;;;;;;;;;;;;;23.80;66.62;100290.50;2052551;28;3846;-72
2021/06/30 04:29:07;;;;;;;;;;;;;;;23.80;66.65;100294.16;2053590;28;4059;-71
2021/06/30 04:30:38;;;;;;;;;;;;;;;23.80;66.65;100291.31;2053217;28;3945;-71
2021/06/30 04:32:10;;;;;;;;;;;;;;;23.79;66.59;100292.50;2053655;28;4038;-71
2021/06/30 04:33:41;;;;;;;;;;;;;;;23.79;66.67;100295.34;2053376;28;4058;-71
2021/06/30 04:35:13;;;;;;;;;;;;;;;23.78;66.69;100305.97;2054021;28;3823;-71
2021/06/30 04:36:45;;;;;;;;;;;;;;;23.79;66.68;100301.06;2053578;28;4067;-72
2021/06/30 04:38:16;;;;;;;;;;;;;;;23.80;66.72;100296.19;2052737;28;3978;-72
2021/06/30 04:39:48;;;;;;;;;;;;;;;23.79;66.66;100298.22;2053779;28;4037;-72
2021/06/30 04:41:19;;;;;;;;;;;;;;;23.78;66.61;100283.09;2053734;28;3887;-72
2021/06/30 04:42:50;;;;;;;;;;;;;;;23.78;66.70;100288.00;2053957;28;4463;-72
2021/06/30 04:44:21;;;;;;;;;;;;;;;23.77;66.66;100278.63;2053422;28;3822;-72
2021/06/30 04:45:53;;;;;;;;;;;;;;;23.77;66.76;100274.94;2053341;28;4935;-73
2021/06/30 04:47:25;;;;;;;;;;;;;;;23.77;66.71;100272.91;2053364;28;3947;-75
2021/06/30 04:48:57;;;;;;;;;;;;;;;23.77;66.78;100281.47;2053329;28;4063;-75
2021/06/30 04:50:28;;;;;;;;;;;;;;;23.77;66.89;100275.75;2052554;28;3872;-75
2021/06/30 04:52:00;;;;;;;;;;;;;;;23.77;66.73;100277.81;2052720;28;4078;-75
2021/06/30 04:53:31;;;;;;;;;;;;;;;23.76;66.78;100279.00;2053857;28;3992;-75
2021/06/30 04:55:03;;;;;;;;;;;;;;;23.76;66.68;100281.84;2053665;28;4036;-76
2021/06/30 04:56:41;;;;;;;;;;;;;;;23.77;66.66;100289.22;2053360;28;3870;-75
2021/06/30 04:58:12;;;;;;;;;;;;;;;23.76;66.68;100284.69;2051588;28;4068;-75
2021/06/30 04:59:43;;;;;;;;;;;;;;;23.75;66.68;100291.63;2053201;28;4033;-75
2021/06/30 05:01:15;;;;;;;;;;;;;;;23.75;66.63;100289.59;2052878;28;3801;-74
2021/06/30 05:02:47;;;;;;;;;;;;;;;23.76;66.60;100293.28;2053270;28;4114;-75
2021/06/30 05:04:19;;;;;;;;;;;;;;;23.74;66.66;100290.00;2052942;28;3963;-75
2021/06/30 05:05:50;;;;;;;;;;;;;;;23.74;66.65;100287.16;2053121;28;4177;-76
2021/06/30 05:07:21;;;;;;;;;;;;;;;23.74;66.77;100290.00;2052805;28;3796;-75
2021/06/30 05:08:53;;;;;;;;;;;;;;;23.75;66.65;100294.50;2052891;28;4282;-76
2021/06/30 05:10:25;;;;;;;;;;;;;;;23.74;66.73;100298.56;2053328;28;3945;-76
2021/06/30 05:11:57;;;;;;;;;;;;;;;23.73;66.66;100294.88;2053087;28;4028;-74
2021/06/30 05:13:29;;;;;;;;;;;;;;;23.73;66.68;100291.19;2053294;28;3773;-74
2021/06/30 05:15:01;;;;;;;;;;;;;;;23.73;66.63;100286.28;2051629;28;4063;-79
2021/06/30 05:16:33;;;;;;;;;;;;;;;23.73;66.72;100288.34;2053600;28;3971;-76
2021/06/30 05:18:05;;;;;;;;;;;;;;;23.72;66.59;100289.56;2052105;28;4206;-75
2021/06/30 05:19:31;;;;;;;;;;;;;;;23.71;66.68;100288.72;2053782;28;3772;-77
2021/06/30 05:21:03;;;;;;;;;;;;;;;23.72;66.65;100290.38;2052794;28;4070;-74
2021/06/30 05:22:34;;;;;;;;;;;;;;;23.72;66.65;100283.84;2053074;28;3984;-74
2021/06/30 05:24:05;;;;;;;;;;;;;;;23.71;66.65;100274.44;2053047;28;4203;-74
2021/06/30 05:25:37;;;;;;;;;;;;;;;23.72;66.67;100276.09;2053852;28;3789;-74
2021/06/30 05:27:09;;;;;;;;;;;;;;;23.71;66.70;100274.44;2053497;28;4244;-75
2021/06/30 05:28:41;;;;;;;;;;;;;;;23.71;66.63;100271.59;2053225;28;4074;-74
2021/06/30 05:30:13;;;;;;;;;;;;;;;23.71;66.66;100265.06;2052705;28;3830;-73
2021/06/30 05:31:45;;;;;;;;;;;;;;;23.70;66.65;100258.47;2053406;28;4218;-74
2021/06/30 05:33:16;;;;;;;;;;;;;;;23.71;66.58;100259.34;2053984;28;4005;-74
2021/06/30 05:34:47;;;;;;;;;;;;;;;23.71;66.55;100256.50;2052817;28;4056;-74
2021/06/30 05:36:18;;;;;;;;;;;;;;;23.70;66.64;100252.75;2052523;28;4049;-74
2021/06/30 05:37:49;;;;;;;;;;;;;;;23.71;66.63;100256.50;2052272;28;4230;-74
2021/06/30 05:39:21;;;;;;;;;;;;;;;23.71;66.73;100253.66;2053140;28;4022;-74
2021/06/30 05:40:52;;;;;;;;;;;;;;;23.71;66.69;100259.34;2052301;28;4209;-74
2021/06/30 05:42:24;;;;;;;;;;;;;;;23.70;66.69;100251.94;2053066;28;3968;-74
2021/06/30 05:43:55;;;;;;;;;;;;;;;23.70;66.70;100243.38;2052581;28;4086;-74
2021/06/30 05:45:26;;;;;;;;;;;;;;;23.69;66.72;100253.97;2053204;28;3802;-73
2021/06/30 05:46:58;;;;;;;;;;;;;;;23.69;66.75;100248.28;2049520;28;4409;-74
2021/06/30 05:48:29;;;;;;;;;;;;;;;23.70;66.72;100252.75;2050396;28;3813;-73
2021/06/30 05:50:00;;;;;;;;;;;;;;;23.70;66.64;100251.94;2052570;28;4027;-73
2021/06/30 05:51:32;;;;;;;;;;;;;;;23.70;66.74;100249.09;2051041;28;4003;-73
2021/06/30 05:53:04;;;;;;;;;;;;;;;23.70;66.72;100243.38;2050841;28;4138;-73
2021/06/30 05:54:35;;;;;;;;;;;;;;;23.69;66.87;100238.88;2052286;28;3885;-74
2021/06/30 05:56:07;;;;;;;;;;;;;;;23.69;66.76;100241.75;2051674;28;4052;-73
2021/06/30 05:57:38;;;;;;;;;;;;;;;23.69;66.83;100239.69;2052046;28;3951;-74
2021/06/30 05:59:09;;;;;;;;;;;;;;;23.69;66.81;100239.69;2051951;28;4212;-74
2021/06/30 06:00:42;;;;;;;;;;;;;;;23.69;66.94;100251.13;2052941;28;4242;-74
2021/06/30 06:02:13;;;;;;;;;;;;;;;23.68;66.90;100248.66;2051344;28;3963;-73
2021/06/30 06:03:44;;;;;;;;;;;;;;;23.69;66.88;100261.72;2052252;28;4180;-73
2021/06/30 06:05:16;;;;;;;;;;;;;;;23.69;66.95;100267.44;2052666;28;3823;-73
2021/06/30 06:06:48;;;;;;;;;;;;;;;23.66;66.91;100273.94;2048207;28;4235;-73
2021/06/30 06:08:19;;;;;;;;;;;;;;;23.67;66.91;100284.13;2051822;28;3804;-73
2021/06/30 06:09:50;;;;;;;;;;;;;;;23.68;67.06;100300.91;2051081;28;4044;-73
2021/06/30 06:11:21;;;;;;;;;;;;;;;23.68;67.03;100311.47;2052924;28;4113;-73
2021/06/30 06:12:53;;;;;;;;;;;;;;;23.67;67.10;100321.25;2051617;28;4036;-73
2021/06/30 06:14:19;;;;;;;;;;;;;;;23.67;67.20;100322.09;2053352;28;3820;-73
2021/06/30 06:15:50;;;;;;;;;;;;;;;23.68;67.28;100322.91;2052479;28;4021;-72
2021/06/30 06:17:21;;;;;;;;;;;;;;;23.67;67.32;100326.97;2052477;28;3832;-73
2021/06/30 06:18:52;;;;;;;;;;;;;;;23.66;67.38;100323.31;2052468;28;4023;-75
2021/06/30 06:20:24;;;;;;;;;;;;;;;23.66;67.38;100322.47;2053046;28;4032;-75
2021/06/30 06:21:58;;;;;;;;;;;;;;;23.66;67.22;100311.06;2051977;28;4017;-73
2021/06/30 06:23:29;;;;;;;;;;;;;;;23.66;67.26;100309.03;2052380;28;3980;-73
2021/06/30 06:25:01;;;;;;;;;;;;;;;23.66;67.36;100308.22;2052405;28;4200;-74
2021/06/30 06:26:32;;;;;;;;;;;;;;;23.66;67.24;100306.16;2051847;28;3818;-75
2021/06/30 06:28:05;;;;;;;;;;;;;;;23.66;67.23;100300.44;2051904;28;4111;-72
2021/06/30 06:29:36;;;;;;;;;;;;;;;23.66;67.25;100305.34;2053096;28;3973;-72
2021/06/30 06:31:13;;;;;;;;;;;;;;;23.66;67.35;100322.47;2052081;28;4212;-72
2021/06/30 06:32:44;;;;;;;;;;;;;;;23.65;67.31;100337.94;2052329;28;4021;-72
2021/06/30 06:34:22;;;;;;;;;;;;;;;23.65;67.40;100341.63;2052817;28;3796;-72
2021/06/30 06:35:54;;;;;;;;;;;;;;;23.65;67.47;100349.38;2052680;28;4201;-73
2021/06/30 06:37:25;;;;;;;;;;;;;;;23.64;67.42;100344.88;2052783;28;3774;-72
2021/06/30 06:38:57;;;;;;;;;;;;;;;23.64;67.42;100345.69;2052496;28;4212;-72
2021/06/30 06:40:28;;;;;;;;;;;;;;;23.63;67.48;100341.22;2052553;28;3949;-72
2021/06/30 06:42:01;;;;;;;;;;;;;;;23.64;67.52;100336.31;2048656;28;4106;-72
2021/06/30 06:43:32;;;;;;;;;;;;;;;23.64;67.46;100336.31;2052548;28;3973;-73
2021/06/30 06:45:03;;;;;;;;;;;;;;;23.64;67.49;100327.75;2052547;28;4211;-72
2021/06/30 06:46:34;;;;;;;;;;;;;;;23.64;67.36;100331.41;2050657;28;3983;-73
2021/06/30 06:48:05;;;;;;;;;;;;;;;23.62;67.48;100319.56;2051122;28;4260;-74
2021/06/30 06:49:36;;;;;;;;;;;;;;;23.64;67.40;100322.03;2050712;28;3955;-74
2021/06/30 06:51:07;;;;;;;;;;;;;;;23.63;67.54;100331.81;2052198;28;4225;-75
2021/06/30 06:52:39;;;;;;;;;;;;;;;23.63;67.50;100332.63;2051176;28;3960;-75
2021/06/30 06:54:11;;;;;;;;;;;;;;;23.63;67.53;100334.69;2042600;28;4064;-74
2021/06/30 06:55:43;;;;;;;;;;;;;;;23.62;67.44;100330.97;2050324;28;4093;-75
2021/06/30 06:57:14;;;;;;;;;;;;;;;23.62;67.58;100330.97;2052369;28;3829;-76
2021/06/30 06:58:45;;;;;;;;;;;;;;;23.61;67.53;100322.81;2052094;28;4204;-76
2021/06/30 07:00:16;;;;;;;;;;;;;;;23.60;67.59;100316.28;2053368;28;3842;-73
2021/06/30 07:01:48;;;;;;;;;;;;;;;23.60;67.50;100304.84;2052434;28;4219;-73
2021/06/30 07:03:14;;;;;;;;;;;;;;;23.59;67.59;100308.09;2052139;28;4024;-76
2021/06/30 07:04:46;;;;;;;;;;;;;;;23.59;67.56;100308.09;2050537;28;4027;-76
2021/06/30 07:06:17;;;;;;;;;;;;;;;23.59;67.52;100306.03;2051570;28;5125;-75
2021/06/30 07:07:48;;;;;;;;;;;;;;;23.59;67.55;100306.03;2049828;28;4187;-77
2021/06/30 07:09:15;;;;;;;;;;;;;;;23.60;67.40;100301.16;2053671;28;3837;-76
2021/06/30 07:10:42;;;;;;;;;;;;;;;23.59;67.42;100308.09;2053535;28;4012;-77
2021/06/30 07:12:14;;;;;;;;;;;;;;;23.59;67.41;100310.94;2041365;28;4223;-76
2021/06/30 07:13:47;;;;;;;;;;;;;;;23.59;67.39;100302.38;2045147;28;4044;-75
2021/06/30 07:15:14;;;;;;;;;;;;;;;23.59;67.49;100303.19;2052855;28;3932;-76
2021/06/30 07:16:46;;;;;;;;;;;;;;;23.59;67.53;100305.22;2051326;28;4081;-76
2021/06/30 07:18:18;;;;;;;;;;;;;;;23.60;67.49;100306.84;2051365;28;4118;-77
2021/06/30 07:19:50;;;;;;;;;;;;;;;23.59;67.42;100296.66;2052147;28;4066;-74
2021/06/30 07:21:22;;;;;;;;;;;;;;;23.56;67.42;100299.06;2052005;28;4071;-74
2021/06/30 07:22:53;;;;;;;;;;;;;;;23.59;67.54;100308.09;2051824;28;4160;-73
2021/06/30 07:24:24;;;;;;;;;;;;;;;23.58;67.58;100306.44;2052938;28;4191;-74
2021/06/30 07:25:56;;;;;;;;;;;;;;;23.58;67.59;100310.13;2052849;28;4277;-76
2021/06/30 07:27:23;;;;;;;;;;;;;;;23.56;67.46;100307.63;2052256;28;3987;-74
2021/06/30 07:28:55;;;;;;;;;;;;;;;23.55;67.59;100313.75;2049167;28;4374;-73
2021/06/30 07:30:26;;;;;;;;;;;;;;;23.49;67.97;100306.72;2054868;28;3869;-72
2021/06/30 07:31:57;;;;;;;;;;;;;;;23.45;67.88;100309.50;2052750;28;4190;-73
2021/06/30 07:33:29;;;;;;;;;;;;;;;23.41;67.99;100307.81;2051752;28;4165;-73
2021/06/30 07:35:00;;;;;;;;;;;;;;;23.39;68.00;100304.50;2052645;28;4319;-74
2021/06/30 07:36:31;;;;;;;;;;;;;;;23.39;67.78;100301.66;2051833;28;3886;-72
2021/06/30 07:38:02;;;;;;;;;;;;;;;23.38;67.87;100309.41;2052114;28;4081;-73
2021/06/30 07:39:30;;;;;;;;;;;;;;;23.37;67.84;100306.91;2052642;28;3897;-73
2021/06/30 07:41:01;;;;;;;;;;;;;;;23.38;67.91;100311.41;2052048;28;4286;-73
2021/06/30 07:42:32;;;;;;;;;;;;;;;23.42;67.72;100310.25;2051852;28;4382;-74
2021/06/30 07:44:04;;;;;;;;;;;;;;;23.43;67.60;100316.78;2053637;28;4255;-73
2021/06/30 07:45:31;;;;;;;;;;;;;;;23.44;67.53;100307.03;2052775;28;4103;-73
2021/06/30 07:46:58;;;;;;;;;;;;;;;23.44;67.58;100302.16;2052214;28;4066;-74
2021/06/30 07:48:25;;;;;;;;;;;;;;;23.45;67.60;100306.63;2050177;28;4188;-73
2021/06/30 07:49:52;;;;;;;;;;;;;;;23.45;67.51;100303.78;2051802;28;4041;-73
2021/06/30 07:51:19;;;;;;;;;;;;;;;23.45;67.58;100302.97;2054507;28;4087;-74
2021/06/30 07:52:48;;;;;;;;;;;;;;;23.44;67.62;100305.00;2052439;28;4197;-74
2021/06/30 07:54:15;;;;;;;;;;;;;;;23.42;67.67;100298.84;2052106;28;4109;-74